sensor_id;sensor_type;location;lat;lon;timestamp;pressure;altitude;pressure_sealevel;temperature;humidity
26436;BME280;15351;52.408;16.826;2023-05-09T00:11:12;102018.15;;;10.91;55.43
26436;BME280;15351;52.408;16.826;2023-05-09T00:23:15;102014.38;;;10.76;55.64
26436;BME280;15351;52.408;16.826;2023-05-09T00:30:00;102012.04;;;10.62;55.84
26436;BME280;15351;52.408;16.826;2023-05-09T00:33:54;102013.39;;;10.55;56.10
26436;BME280;15351;52.408;16.826;2023-05-09T00:44:23;102004.89;;;10.40;56.65
26436;BME280;15351;52.408;16.826;2023-05-09T00:47:15;102004.77;;;10.40;56.75
26436;BME280;15351;52.408;16.826;2023-05-09T00:58:03;101996.91;;;10.26;56.84
26436;BME280;15351;52.408;16.826;2023-05-09T01:01:28;101998.44;;;10.19;57.09
26436;BME280;15351;52.408;16.826;2023-05-09T01:05:09;101994.08;;;10.13;57.25
26436;BME280;15351;52.408;16.826;2023-05-09T01:28:21;101980.05;;;10.06;57.80
26436;BME280;15351;52.408;16.826;2023-05-09T01:31:43;101981.64;;;10.06;57.81
26436;BME280;15351;52.408;16.826;2023-05-09T01:34:59;101975.27;;;9.99;57.73
26436;BME280;15351;52.408;16.826;2023-05-09T01:41:20;101982.05;;;9.92;57.89
26436;BME280;15351;52.408;16.826;2023-05-09T01:45:09;101987.60;;;9.86;57.97
26436;BME280;15351;52.408;16.826;2023-05-09T01:59:31;101972.43;;;9.60;58.38
26436;BME280;15351;52.408;16.826;2023-05-09T02:02:54;101970.56;;;9.61;58.68
26436;BME280;15351;52.408;16.826;2023-05-09T02:06:34;101972.31;;;9.66;58.59
26436;BME280;15351;52.408;16.826;2023-05-09T02:09:37;101971.80;;;9.67;58.46
26436;BME280;15351;52.408;16.826;2023-05-09T02:13:00;101967.17;;;9.65;58.53
26436;BME280;15351;52.408;16.826;2023-05-09T02:15:53;101964.08;;;9.63;58.66
26436;BME280;15351;52.408;16.826;2023-05-09T02:19:00;101954.94;;;9.61;58.65
26436;BME280;15351;52.408;16.826;2023-05-09T02:25:33;101945.20;;;9.52;58.81
26436;BME280;15351;52.408;16.826;2023-05-09T02:28:03;101948.67;;;9.55;58.86
26436;BME280;15351;52.408;16.826;2023-05-09T02:30:36;101954.17;;;9.54;58.72
26436;BME280;15351;52.408;16.826;2023-05-09T02:33:27;101944.28;;;9.46;58.83
26436;BME280;15351;52.408;16.826;2023-05-09T02:36:14;101942.20;;;9.45;59.08
26436;BME280;15351;52.408;16.826;2023-05-09T02:38:57;101951.27;;;9.52;58.98
26436;BME280;15351;52.408;16.826;2023-05-09T02:45:27;101949.98;;;9.53;58.94
26436;BME280;15351;52.408;16.826;2023-05-09T02:48:43;101947.60;;;9.51;58.88
26436;BME280;15351;52.408;16.826;2023-05-09T02:54:39;101945.54;;;9.54;58.88
26436;BME280;15351;52.408;16.826;2023-05-09T02:57:10;101945.95;;;9.55;58.83
26436;BME280;15351;52.408;16.826;2023-05-09T02:59:47;101946.41;;;9.56;58.81
26436;BME280;15351;52.408;16.826;2023-05-09T03:02:19;101946.67;;;9.58;58.68
26436;BME280;15351;52.408;16.826;2023-05-09T03:08:30;101948.52;;;9.55;58.61
26436;BME280;15351;52.408;16.826;2023-05-09T03:11:33;101944.26;;;9.52;58.78
26436;BME280;15351;52.408;16.826;2023-05-09T03:14:06;101948.84;;;9.49;58.76
26436;BME280;15351;52.408;16.826;2023-05-09T03:16:57;101945.68;;;9.47;58.81
26436;BME280;15351;52.408;16.826;2023-05-09T03:19:33;101945.70;;;9.46;58.93
26436;BME280;15351;52.408;16.826;2023-05-09T03:22:14;101942.63;;;9.48;58.80
26436;BME280;15351;52.408;16.826;2023-05-09T03:25:03;101940.66;;;9.46;58.79
26436;BME280;15351;52.408;16.826;2023-05-09T03:30:50;101938.21;;;9.56;58.80
26436;BME280;15351;52.408;16.826;2023-05-09T03:36:57;101941.80;;;9.60;58.72
26436;BME280;15351;52.408;16.826;2023-05-09T03:39:47;101939.83;;;9.63;58.68
26436;BME280;15351;52.408;16.826;2023-05-09T03:42:20;101939.88;;;9.63;58.49
26436;BME280;15351;52.408;16.826;2023-05-09T03:45:26;101939.09;;;9.64;58.55
26436;BME280;15351;52.408;16.826;2023-05-09T03:47:53;101945.52;;;9.66;58.56
26436;BME280;15351;52.408;16.826;2023-05-09T03:50:41;101941.18;;;9.68;58.42
26436;BME280;15351;52.408;16.826;2023-05-09T03:53:18;101939.69;;;9.69;58.35
26436;BME280;15351;52.408;16.826;2023-05-09T03:55:53;101948.29;;;9.69;58.11
26436;BME280;15351;52.408;16.826;2023-05-09T03:58:31;101945.67;;;9.70;58.18
26436;BME280;15351;52.408;16.826;2023-05-09T04:01:14;101944.85;;;9.72;58.10
26436;BME280;15351;52.408;16.826;2023-05-09T04:04:31;101940.98;;;9.73;58.09
26436;BME280;15351;52.408;16.826;2023-05-09T04:07:27;101940.16;;;9.76;58.11
26436;BME280;15351;52.408;16.826;2023-05-09T04:12:36;101935.56;;;9.83;58.37
26436;BME280;15351;52.408;16.826;2023-05-09T04:15:05;101936.56;;;9.86;58.19
26436;BME280;15351;52.408;16.826;2023-05-09T04:17:33;101938.27;;;9.89;58.15
26436;BME280;15351;52.408;16.826;2023-05-09T04:20:15;101940.48;;;9.94;57.97
26436;BME280;15351;52.408;16.826;2023-05-09T04:22:44;101940.81;;;9.98;57.76
26436;BME280;15351;52.408;16.826;2023-05-09T04:25:12;101939.00;;;10.02;57.72
26436;BME280;15351;52.408;16.826;2023-05-09T04:27:47;101937.52;;;10.07;57.79
26436;BME280;15351;52.408;16.826;2023-05-09T04:30:17;101935.45;;;10.12;57.53
26436;BME280;15351;52.408;16.826;2023-05-09T04:32:45;101935.60;;;10.14;57.13
26436;BME280;15351;52.408;16.826;2023-05-09T04:35:12;101940.09;;;10.16;57.18
26436;BME280;15351;52.408;16.826;2023-05-09T04:37:42;101938.96;;;10.20;57.22
26436;BME280;15351;52.408;16.826;2023-05-09T04:40:10;101940.34;;;10.25;57.22
26436;BME280;15351;52.408;16.826;2023-05-09T04:42:42;101938.77;;;10.30;56.96
26436;BME280;15351;52.408;16.826;2023-05-09T04:45:09;101937.25;;;10.35;57.02
26436;BME280;15351;52.408;16.826;2023-05-09T04:47:38;101938.96;;;10.39;56.84
26436;BME280;15351;52.408;16.826;2023-05-09T04:50:06;101936.44;;;10.43;56.66
26436;BME280;15351;52.408;16.826;2023-05-09T04:52:35;101936.20;;;10.46;56.52
26436;BME280;15351;52.408;16.826;2023-05-09T04:55:06;101932.83;;;10.51;56.61
26436;BME280;15351;52.408;16.826;2023-05-09T04:57:47;101933.75;;;10.57;56.77
26436;BME280;15351;52.408;16.826;2023-05-09T05:00:27;101935.69;;;10.63;56.76
26436;BME280;15351;52.408;16.826;2023-05-09T05:02:54;101936.02;;;10.69;56.74
26436;BME280;15351;52.408;16.826;2023-05-09T05:05:24;101936.02;;;10.73;56.53
26436;BME280;15351;52.408;16.826;2023-05-09T05:07:51;101936.19;;;10.75;56.42
26436;BME280;15351;52.408;16.826;2023-05-09T05:10:21;101938.38;;;10.78;56.07
26436;BME280;15351;52.408;16.826;2023-05-09T05:12:53;101939.11;;;10.84;56.06
26436;BME280;15351;52.408;16.826;2023-05-09T05:15:22;101940.67;;;10.88;56.35
26436;BME280;15351;52.408;16.826;2023-05-09T05:17:50;101939.03;;;10.94;56.01
26436;BME280;15351;52.408;16.826;2023-05-09T05:20:19;101944.15;;;11.00;55.84
26436;BME280;15351;52.408;16.826;2023-05-09T05:22:47;101935.98;;;11.05;55.59
26436;BME280;15351;52.408;16.826;2023-05-09T05:25:18;101936.71;;;11.08;55.62
26436;BME280;15351;52.408;16.826;2023-05-09T05:27:48;101939.56;;;11.13;55.45
26436;BME280;15351;52.408;16.826;2023-05-09T05:30:16;101938.27;;;11.17;55.40
26436;BME280;15351;52.408;16.826;2023-05-09T05:32:44;101938.54;;;11.21;55.38
26436;BME280;15351;52.408;16.826;2023-05-09T05:35:16;101937.24;;;11.25;55.29
26436;BME280;15351;52.408;16.826;2023-05-09T05:37:46;101941.97;;;11.28;55.06
26436;BME280;15351;52.408;16.826;2023-05-09T05:40:14;101940.64;;;11.33;55.03
26436;BME280;15351;52.408;16.826;2023-05-09T05:42:44;101940.04;;;11.37;55.16
26436;BME280;15351;52.408;16.826;2023-05-09T05:45:12;101938.61;;;11.41;54.94
26436;BME280;15351;52.408;16.826;2023-05-09T05:47:41;101937.45;;;11.46;54.94
26436;BME280;15351;52.408;16.826;2023-05-09T05:50:08;101936.87;;;11.49;54.75
26436;BME280;15351;52.408;16.826;2023-05-09T05:52:39;101940.15;;;11.54;54.61
26436;BME280;15351;52.408;16.826;2023-05-09T05:55:18;101941.39;;;11.59;54.45
26436;BME280;15351;52.408;16.826;2023-05-09T05:57:48;101944.73;;;11.65;54.66
26436;BME280;15351;52.408;16.826;2023-05-09T06:00:31;101937.76;;;11.71;54.52
26436;BME280;15351;52.408;16.826;2023-05-09T06:03:01;101940.00;;;11.78;54.67
26436;BME280;15351;52.408;16.826;2023-05-09T06:05:34;101936.04;;;11.85;54.92
26436;BME280;15351;52.408;16.826;2023-05-09T06:08:01;101931.98;;;11.91;54.84
26436;BME280;15351;52.408;16.826;2023-05-09T06:10:28;101925.40;;;11.99;54.54
26436;BME280;15351;52.408;16.826;2023-05-09T06:12:57;101927.74;;;12.07;54.41
26436;BME280;15351;52.408;16.826;2023-05-09T06:15:24;101925.41;;;12.12;54.09
26436;BME280;15351;52.408;16.826;2023-05-09T06:17:52;101928.70;;;12.18;53.77
26436;BME280;15351;52.408;16.826;2023-05-09T06:20:19;101927.63;;;12.25;53.23
26436;BME280;15351;52.408;16.826;2023-05-09T06:22:53;101929.11;;;12.34;53.16
26436;BME280;15351;52.408;16.826;2023-05-09T06:25:20;101926.65;;;12.42;53.20
26436;BME280;15351;52.408;16.826;2023-05-09T06:27:47;101925.29;;;12.52;53.08
26436;BME280;15351;52.408;16.826;2023-05-09T06:30:15;101924.16;;;12.61;52.89
26436;BME280;15351;52.408;16.826;2023-05-09T06:32:42;101927.33;;;12.69;52.53
26436;BME280;15351;52.408;16.826;2023-05-09T06:35:11;101917.48;;;12.77;52.29
26436;BME280;15351;52.408;16.826;2023-05-09T06:37:38;101917.95;;;12.86;52.28
26436;BME280;15351;52.408;16.826;2023-05-09T06:40:06;101912.52;;;12.97;52.01
26436;BME280;15351;52.408;16.826;2023-05-09T06:42:34;101908.58;;;13.07;51.86
26436;BME280;15351;52.408;16.826;2023-05-09T06:45:02;101914.14;;;13.17;51.62
26436;BME280;15351;52.408;16.826;2023-05-09T06:47:56;101904.42;;;13.27;50.65
26436;BME280;15351;52.408;16.826;2023-05-09T06:50:25;101905.51;;;13.34;50.14
26436;BME280;15351;52.408;16.826;2023-05-09T06:52:52;101902.77;;;13.39;49.73
26436;BME280;15351;52.408;16.826;2023-05-09T06:55:19;101897.30;;;13.46;49.18
26436;BME280;15351;52.408;16.826;2023-05-09T06:57:48;101890.81;;;13.54;48.75
26436;BME280;15351;52.408;16.826;2023-05-09T07:00:16;101892.44;;;13.63;48.58
26436;BME280;15351;52.408;16.826;2023-05-09T07:02:47;101889.95;;;13.72;48.21
26436;BME280;15351;52.408;16.826;2023-05-09T07:05:14;101885.38;;;13.83;48.04
26436;BME280;15351;52.408;16.826;2023-05-09T07:07:41;101885.54;;;13.93;47.71
26436;BME280;15351;52.408;16.826;2023-05-09T07:10:09;101883.73;;;14.03;47.16
26436;BME280;15351;52.408;16.826;2023-05-09T07:13:09;101880.50;;;14.16;46.84
26436;BME280;15351;52.408;16.826;2023-05-09T07:15:42;101881.48;;;14.31;46.57
26436;BME280;15351;52.408;16.826;2023-05-09T07:18:34;101882.23;;;14.50;46.49
26436;BME280;15351;52.408;16.826;2023-05-09T07:21:07;101878.09;;;14.66;46.10
26436;BME280;15351;52.408;16.826;2023-05-09T07:27:57;101869.21;;;15.03;45.72
26436;BME280;15351;52.408;16.826;2023-05-09T07:30:33;101872.77;;;15.26;45.33
26436;BME280;15351;52.408;16.826;2023-05-09T07:33:04;101863.05;;;15.39;44.99
26436;BME280;15351;52.408;16.826;2023-05-09T07:38:26;101863.86;;;15.55;44.11
26436;BME280;15351;52.408;16.826;2023-05-09T07:40:53;101858.41;;;15.68;43.92
26436;BME280;15351;52.408;16.826;2023-05-09T07:43:22;101856.48;;;15.78;43.45
26436;BME280;15351;52.408;16.826;2023-05-09T07:45:51;101852.43;;;15.91;43.39
26436;BME280;15351;52.408;16.826;2023-05-09T07:48:18;101851.27;;;16.02;42.84
26436;BME280;15351;52.408;16.826;2023-05-09T07:50:59;101848.20;;;16.10;42.60
26436;BME280;15351;52.408;16.826;2023-05-09T07:53:35;101842.98;;;16.15;41.77
26436;BME280;15351;52.408;16.826;2023-05-09T07:56:07;101839.16;;;16.18;42.13
26436;BME280;15351;52.408;16.826;2023-05-09T07:58:44;101840.91;;;16.34;42.02
26436;BME280;15351;52.408;16.826;2023-05-09T08:01:23;101834.41;;;16.47;41.63
26436;BME280;15351;52.408;16.826;2023-05-09T08:03:54;101830.40;;;16.55;40.96
26436;BME280;15351;52.408;16.826;2023-05-09T08:06:21;101828.48;;;16.60;40.67
26436;BME280;15351;52.408;16.826;2023-05-09T08:08:49;101826.70;;;16.70;40.81
26436;BME280;15351;52.408;16.826;2023-05-09T08:11:26;101826.07;;;16.87;40.75
26436;BME280;15351;52.408;16.826;2023-05-09T08:13:59;101820.84;;;17.00;40.33
26436;BME280;15351;52.408;16.826;2023-05-09T08:16:30;101822.27;;;17.13;39.63
26436;BME280;15351;52.408;16.826;2023-05-09T08:18:57;101822.11;;;17.20;39.41
26436;BME280;15351;52.408;16.826;2023-05-09T08:21:27;101819.34;;;17.35;39.92
26436;BME280;15351;52.408;16.826;2023-05-09T08:23:54;101818.05;;;17.46;39.21
26436;BME280;15351;52.408;16.826;2023-05-09T08:26:41;101814.88;;;17.53;38.75
26436;BME280;15351;52.408;16.826;2023-05-09T08:29:11;101812.82;;;17.57;38.29
26436;BME280;15351;52.408;16.826;2023-05-09T08:31:40;101808.39;;;17.61;38.01
26436;BME280;15351;52.408;16.826;2023-05-09T08:34:09;101801.63;;;17.75;38.82
26436;BME280;15351;52.408;16.826;2023-05-09T08:36:37;101802.20;;;17.91;38.21
26436;BME280;15351;52.408;16.826;2023-05-09T08:39:07;101804.67;;;18.05;37.77
26436;BME280;15351;52.408;16.826;2023-05-09T08:42:06;101805.05;;;18.16;37.34
26436;BME280;15351;52.408;16.826;2023-05-09T08:44:42;101799.82;;;18.23;37.16
26436;BME280;15351;52.408;16.826;2023-05-09T08:47:10;101794.41;;;18.28;36.30
26436;BME280;15351;52.408;16.826;2023-05-09T08:49:37;101785.48;;;18.25;36.41
26436;BME280;15351;52.408;16.826;2023-05-09T08:52:10;101785.79;;;18.42;37.28
26436;BME280;15351;52.408;16.826;2023-05-09T08:54:37;101793.27;;;18.53;36.46
26436;BME280;15351;52.408;16.826;2023-05-09T08:57:06;101782.73;;;18.56;36.50
26436;BME280;15351;52.408;16.826;2023-05-09T08:59:39;101782.52;;;18.63;35.81
26436;BME280;15351;52.408;16.826;2023-05-09T09:02:11;101780.70;;;18.64;35.59
26436;BME280;15351;52.408;16.826;2023-05-09T09:04:40;101774.61;;;18.76;36.17
26436;BME280;15351;52.408;16.826;2023-05-09T09:07:08;101768.91;;;18.84;35.32
26436;BME280;15351;52.408;16.826;2023-05-09T09:09:38;101763.86;;;18.80;35.65
26436;BME280;15351;52.408;16.826;2023-05-09T09:12:19;101769.55;;;18.93;36.14
26436;BME280;15351;52.408;16.826;2023-05-09T09:15:12;101758.52;;;19.12;36.10
26436;BME280;15351;52.408;16.826;2023-05-09T09:17:58;101756.45;;;19.31;36.34
26436;BME280;15351;52.408;16.826;2023-05-09T09:20:35;101757.50;;;19.47;35.51
26436;BME280;15351;52.408;16.826;2023-05-09T09:23:23;101753.59;;;19.51;35.08
26436;BME280;15351;52.408;16.826;2023-05-09T09:26:04;101756.96;;;19.56;35.15
26436;BME280;15351;52.408;16.826;2023-05-09T09:28:34;101746.69;;;19.64;35.01
26436;BME280;15351;52.408;16.826;2023-05-09T09:31:01;101742.21;;;19.69;34.77
26436;BME280;15351;52.408;16.826;2023-05-09T09:33:34;101739.71;;;19.80;34.76
26436;BME280;15351;52.408;16.826;2023-05-09T09:36:02;101730.86;;;19.88;34.87
26436;BME280;15351;52.408;16.826;2023-05-09T09:38:41;101737.56;;;19.96;34.37
26436;BME280;15351;52.408;16.826;2023-05-09T09:41:12;101731.52;;;20.09;34.82
26436;BME280;15351;52.408;16.826;2023-05-09T09:43:44;101723.10;;;20.17;34.61
26436;BME280;15351;52.408;16.826;2023-05-09T09:46:13;101724.57;;;20.27;34.98
26436;BME280;15351;52.408;16.826;2023-05-09T09:48:45;101716.53;;;20.39;34.79
26436;BME280;15351;52.408;16.826;2023-05-09T09:51:39;101719.75;;;20.52;34.41
26436;BME280;15351;52.408;16.826;2023-05-09T09:54:10;101707.66;;;20.63;34.26
26436;BME280;15351;52.408;16.826;2023-05-09T09:56:42;101711.13;;;20.76;34.39
26436;BME280;15351;52.408;16.826;2023-05-09T09:59:20;101708.37;;;20.88;34.70
26436;BME280;15351;52.408;16.826;2023-05-09T10:02:04;101700.60;;;21.00;34.61
26436;BME280;15351;52.408;16.826;2023-05-09T10:04:40;101700.30;;;21.07;33.11
26436;BME280;15351;52.408;16.826;2023-05-09T10:07:12;101694.98;;;20.91;31.99
26436;BME280;15351;52.408;16.826;2023-05-09T10:09:40;101693.90;;;20.79;32.20
26436;BME280;15351;52.408;16.826;2023-05-09T10:12:18;101695.90;;;20.80;32.29
26436;BME280;15351;52.408;16.826;2023-05-09T10:14:48;101699.04;;;20.87;32.24
26436;BME280;15351;52.408;16.826;2023-05-09T10:17:19;101685.60;;;20.92;32.63
26436;BME280;15351;52.408;16.826;2023-05-09T10:20:10;101674.63;;;20.94;32.72
26436;BME280;15351;52.408;16.826;2023-05-09T10:22:39;101677.55;;;21.02;32.87
26436;BME280;15351;52.408;16.826;2023-05-09T10:25:31;101673.39;;;21.07;32.84
26436;BME280;15351;52.408;16.826;2023-05-09T10:28:11;101669.89;;;21.06;32.35
26436;BME280;15351;52.408;16.826;2023-05-09T10:31:14;101666.51;;;21.08;32.91
26436;BME280;15351;52.408;16.826;2023-05-09T10:34:00;101667.23;;;20.96;31.96
26436;BME280;15351;52.408;16.826;2023-05-09T10:39:26;101650.44;;;20.73;32.12
26436;BME280;15351;52.408;16.826;2023-05-09T10:41:57;101655.96;;;20.87;32.74
26436;BME280;15351;52.408;16.826;2023-05-09T10:44:37;101650.17;;;21.07;33.09
26436;BME280;15351;52.408;16.826;2023-05-09T10:47:27;101638.42;;;21.18;32.72
26436;BME280;15351;52.408;16.826;2023-05-09T10:50:06;101642.91;;;21.23;33.12
26436;BME280;15351;52.408;16.826;2023-05-09T10:52:34;101647.61;;;21.26;31.77
26436;BME280;15351;52.408;16.826;2023-05-09T10:55:21;101643.90;;;21.12;31.82
26436;BME280;15351;52.408;16.826;2023-05-09T10:57:52;101633.83;;;21.19;32.18
26436;BME280;15351;52.408;16.826;2023-05-09T11:00:24;101631.29;;;21.24;32.04
26436;BME280;15351;52.408;16.826;2023-05-09T11:03:06;101628.84;;;21.31;32.41
26436;BME280;15351;52.408;16.826;2023-05-09T11:08:38;101621.63;;;21.45;31.76
26436;BME280;15351;52.408;16.826;2023-05-09T11:11:22;101616.11;;;21.48;32.38
26436;BME280;15351;52.408;16.826;2023-05-09T11:17:28;101602.65;;;21.63;31.18
26436;BME280;15351;52.408;16.826;2023-05-09T11:19:59;101597.19;;;21.54;30.87
26436;BME280;15351;52.408;16.826;2023-05-09T11:22:47;101598.14;;;21.60;31.68
26436;BME280;15351;52.408;16.826;2023-05-09T11:25:24;101583.64;;;21.67;31.39
26436;BME280;15351;52.408;16.826;2023-05-09T11:28:28;101591.42;;;21.68;31.32
26436;BME280;15351;52.408;16.826;2023-05-09T11:31:18;101577.02;;;21.71;30.54
26436;BME280;15351;52.408;16.826;2023-05-09T11:34:11;101589.81;;;21.68;31.19
26436;BME280;15351;52.408;16.826;2023-05-09T11:37:06;101589.86;;;21.66;30.64
26436;BME280;15351;52.408;16.826;2023-05-09T11:40:03;101574.97;;;21.59;30.67
26436;BME280;15351;52.408;16.826;2023-05-09T11:42:46;101579.36;;;21.53;30.38
26436;BME280;15351;52.408;16.826;2023-05-09T11:45:49;101579.05;;;21.54;30.64
26436;BME280;15351;52.408;16.826;2023-05-09T11:48:21;101562.02;;;21.47;30.91
26436;BME280;15351;52.408;16.826;2023-05-09T11:50:50;101560.09;;;21.52;31.48
26436;BME280;15351;52.408;16.826;2023-05-09T11:54:11;101542.83;;;21.53;31.12
26436;BME280;15351;52.408;16.826;2023-05-09T11:56:40;101533.64;;;21.56;31.47
26436;BME280;15351;52.408;16.826;2023-05-09T12:00:02;101534.73;;;21.64;31.36
26436;BME280;15351;52.408;16.826;2023-05-09T12:03:14;101539.11;;;21.72;31.18
26436;BME280;15351;52.408;16.826;2023-05-09T12:05:42;101531.98;;;21.69;30.64
26436;BME280;15351;52.408;16.826;2023-05-09T12:08:36;101529.38;;;21.67;31.39
26436;BME280;15351;52.408;16.826;2023-05-09T12:11:57;101512.76;;;21.76;31.39
26436;BME280;15351;52.408;16.826;2023-05-09T12:14:47;101511.31;;;21.76;31.21
26436;BME280;15351;52.408;16.826;2023-05-09T12:17:16;101507.73;;;21.75;31.30
26436;BME280;15351;52.408;16.826;2023-05-09T12:20:22;101502.45;;;21.80;31.18
26436;BME280;15351;52.408;16.826;2023-05-09T12:23:20;101501.14;;;21.80;30.72
26436;BME280;15351;52.408;16.826;2023-05-09T12:29:26;101487.50;;;21.78;30.89
26436;BME280;15351;52.408;16.826;2023-05-09T12:32:34;101479.08;;;21.72;30.52
26436;BME280;15351;52.408;16.826;2023-05-09T12:39:21;101476.24;;;21.77;31.30
26436;BME280;15351;52.408;16.826;2023-05-09T12:41:54;101476.81;;;21.81;30.69
26436;BME280;15351;52.408;16.826;2023-05-09T12:45:43;101465.61;;;21.76;30.33
26436;BME280;15351;52.408;16.826;2023-05-09T12:48:42;101455.71;;;21.69;30.11
26436;BME280;15351;52.408;16.826;2023-05-09T12:51:49;101452.63;;;21.64;30.27
26436;BME280;15351;52.408;16.826;2023-05-09T12:54:55;101451.77;;;21.66;30.77
26436;BME280;15351;52.408;16.826;2023-05-09T13:02:37;101439.08;;;21.58;30.26
26436;BME280;15351;52.408;16.826;2023-05-09T13:05:59;101434.18;;;21.58;30.22
26436;BME280;15351;52.408;16.826;2023-05-09T13:16:17;101421.79;;;21.55;30.42
26436;BME280;15351;52.408;16.826;2023-05-09T13:31:06;101411.75;;;20.92;29.72
26436;BME280;15351;52.408;16.826;2023-05-09T13:34:05;101402.30;;;20.92;30.01
26436;BME280;15351;52.408;16.826;2023-05-09T13:36:57;101410.14;;;20.93;30.30
26436;BME280;15351;52.408;16.826;2023-05-09T13:40:51;101383.77;;;20.88;30.44
26436;BME280;15351;52.408;16.826;2023-05-09T13:44:06;101384.26;;;20.95;31.26
26436;BME280;15351;52.408;16.826;2023-05-09T13:50:47;101361.75;;;20.94;31.34
26436;BME280;15351;52.408;16.826;2023-05-09T14:05:03;101354.12;;;20.69;30.29
26436;BME280;15351;52.408;16.826;2023-05-09T14:20:15;101318.20;;;20.48;29.84
26436;BME280;15351;52.408;16.826;2023-05-09T14:38:40;101294.59;;;20.03;30.15
26436;BME280;15351;52.408;16.826;2023-05-09T14:48:41;101290.09;;;19.76;29.65
26436;BME280;15351;52.408;16.826;2023-05-09T14:51:47;101287.77;;;19.70;29.60
26436;BME280;15351;52.408;16.826;2023-05-09T15:02:15;101270.45;;;19.67;29.89
26436;BME280;15351;52.408;16.826;2023-05-09T15:05:27;101266.58;;;19.64;29.98
26436;BME280;15351;52.408;16.826;2023-05-09T15:16:32;101252.78;;;19.53;30.40
26436;BME280;15351;52.408;16.826;2023-05-09T15:19:54;101251.91;;;19.47;30.07
26436;BME280;15351;52.408;16.826;2023-05-09T15:23:56;101239.46;;;19.44;30.07
26436;BME280;15351;52.408;16.826;2023-05-09T15:27:13;101246.20;;;19.40;30.33
26436;BME280;15351;52.408;16.826;2023-05-09T15:30:24;101240.54;;;19.38;30.58
26436;BME280;15351;52.408;16.826;2023-05-09T15:46:00;101228.55;;;19.23;30.38
26436;BME280;15351;52.408;16.826;2023-05-09T15:48:34;101217.81;;;19.17;30.02
26436;BME280;15351;52.408;16.826;2023-05-09T15:55:16;101212.27;;;19.01;29.98
26436;BME280;15351;52.408;16.826;2023-05-09T16:02:06;101201.06;;;18.91;30.30
26436;BME280;15351;52.408;16.826;2023-05-09T16:05:51;101201.82;;;18.88;30.15
26436;BME280;15351;52.408;16.826;2023-05-09T16:15:57;101184.32;;;18.87;30.61
26436;BME280;15351;52.408;16.826;2023-05-09T16:21:52;101171.66;;;18.82;30.43
26436;BME280;15351;52.408;16.826;2023-05-09T16:25:05;101169.05;;;18.80;30.70
26436;BME280;15351;52.408;16.826;2023-05-09T16:32:15;101163.65;;;18.74;30.50
26436;BME280;15351;52.408;16.826;2023-05-09T16:35:25;101163.08;;;18.72;30.58
26436;BME280;15351;52.408;16.826;2023-05-09T16:38:31;101161.45;;;18.69;30.46
26436;BME280;15351;52.408;16.826;2023-05-09T16:41:54;101157.66;;;18.63;30.39
26436;BME280;15351;52.408;16.826;2023-05-09T16:49:08;101150.87;;;18.55;30.06
26436;BME280;15351;52.408;16.826;2023-05-09T16:52:11;101146.55;;;18.46;30.27
26436;BME280;15351;52.408;16.826;2023-05-09T16:59:01;101134.91;;;18.34;30.67
26436;BME280;15351;52.408;16.826;2023-05-09T17:02:02;101133.73;;;18.34;31.00
26436;BME280;15351;52.408;16.826;2023-05-09T17:04:41;101133.77;;;18.35;31.08
26436;BME280;15351;52.408;16.826;2023-05-09T17:10:54;101127.45;;;18.28;30.84
26436;BME280;15351;52.408;16.826;2023-05-09T17:14:17;101120.79;;;18.24;30.86
26436;BME280;15351;52.408;16.826;2023-05-09T17:16:53;101119.70;;;18.22;31.12
26436;BME280;15351;52.408;16.826;2023-05-09T17:20:20;101116.71;;;18.19;30.91
26436;BME280;15351;52.408;16.826;2023-05-09T17:26:50;101106.15;;;18.15;31.16
26436;BME280;15351;52.408;16.826;2023-05-09T17:37:14;101108.80;;;18.00;30.98
26436;BME280;15351;52.408;16.826;2023-05-09T17:39:56;101107.77;;;17.97;31.18
26436;BME280;15351;52.408;16.826;2023-05-09T17:43:18;101109.91;;;17.95;31.00
26436;BME280;15351;52.408;16.826;2023-05-09T17:45:49;101106.23;;;17.89;31.08
26436;BME280;15351;52.408;16.826;2023-05-09T17:48:50;101107.43;;;17.86;31.00
26436;BME280;15351;52.408;16.826;2023-05-09T17:51:43;101109.80;;;17.81;30.79
26436;BME280;15351;52.408;16.826;2023-05-09T17:54:47;101106.70;;;17.75;31.04
26436;BME280;15351;52.408;16.826;2023-05-09T17:58:13;101108.94;;;17.72;31.18
26436;BME280;15351;52.408;16.826;2023-05-09T18:01:15;101104.86;;;17.72;31.66
26436;BME280;15351;52.408;16.826;2023-05-09T18:04:21;101101.61;;;17.69;31.67
26436;BME280;15351;52.408;16.826;2023-05-09T18:07:24;101108.50;;;17.63;31.73
26436;BME280;15351;52.408;16.826;2023-05-09T18:11:01;101107.73;;;17.57;31.58
26436;BME280;15351;52.408;16.826;2023-05-09T18:13:47;101101.66;;;17.52;31.32
26436;BME280;15351;52.408;16.826;2023-05-09T18:16:49;101106.80;;;17.47;31.71
26436;BME280;15351;52.408;16.826;2023-05-09T18:19:30;101104.31;;;17.44;31.96
26436;BME280;15351;52.408;16.826;2023-05-09T18:21:57;101102.06;;;17.39;31.77
26436;BME280;15351;52.408;16.826;2023-05-09T18:24:25;101105.38;;;17.34;32.47
26436;BME280;15351;52.408;16.826;2023-05-09T18:26:55;101103.39;;;17.30;32.28
26436;BME280;15351;52.408;16.826;2023-05-09T18:29:33;101104.85;;;17.27;32.75
26436;BME280;15351;52.408;16.826;2023-05-09T18:32:03;101104.96;;;17.24;32.98
26436;BME280;15351;52.408;16.826;2023-05-09T18:34:35;101106.02;;;17.20;32.76
26436;BME280;15351;52.408;16.826;2023-05-09T18:37:05;101095.55;;;17.10;33.22